West Haverstraw, NY (10993)

06:58 EDT le 25 avril 2015 (GMT -0400)
Thiells, New York | | Change Station
CLOSE
Current Station
Stations météorologiques personnelles
Location: Thiells, NY
Altitude: 351 ft
Stations météo à proximité
Avis météorologiques actifs: Freeze Warning Préavis actif: Public Information Statement

Alt. 351 ft 41.20 °N, 74.02 °W | Updated 4 seconds ago

Ciel dégagé
Ciel dégagé
35.2 ° F
Paraît 35 ° F
N
0.0
Vent Variable Vent de SO
Gusts 0.0 mph

Aujourd'hui
Haut(e) -- | Bas -- ° F
--% Risque de précip.
Hier
Haut(e) -- | Bas -- ° F
Precip. -- pouce
6:02 AM 7:46 PM
Lune montante, 45% visible
Pression 29.90 pouce
Visibilité 10.0 Miles terrestres
Nuages Ciel dégagé
Refroidissement éolien 35 ° F
Point de rosée 24 ° F
Humidité 62%
Précipitations 0.00 pouce
Profondeur de la couche neigeuse Non disponible.
UV 0 sur 12
Pollen 11.20 sur 12
Qualité de l'air Non disponible.
Flu Activity Widespread
METAR KHPN 250956Z 27006KT 10SM CLR 01/M06 A2988 RMK AO2 SLP123 T00111061

More Conditions Fewer Conditions

Pression 29.90 pouce
Visibilité 10.0 Miles terrestres
Nuages Ciel dégagé
Refroidissement éolien 35 ° F
Point de rosée 24 ° F
Humidité 62%
Précipitations 0.00 pouce
Profondeur de la couche neigeuse Non disponible.
UV 0 sur 12
Pollen 11.20 sur 12
Qualité de l'air Non disponible.
Flu Activity Widespread
METAR KHPN 250956Z 27006KT 10SM CLR 01/M06 A2988 RMK AO2 SLP123 T00111061

More Conditions Fewer Conditions

10-Day Weather Forecast

Almanac

Astronomie

Apr. 25, 2015 Lever Coucher
Temps réel
Crépuscule civil
Crépuscule nautique
Crépuscule astronomique
Lune
Durée de lumière visible
Longueur du jour
Tomorrow will be .
, % of the Moon is Illuminated

Extrêmes aujourd'hui

State Highs State Lows

Community

WunderPhotos

Upload Photos

1,816,639 Photos téléchargées !

WunderBlogs® & News

Nearby

Qualité de l'air

  Qualité de l'air Indice de la qualité de l'air Polluant
Not available.

Épaisseur de neige

Station Depth Altitude

Activité sismique

Ville Distance Mag. Time & Date
Minimum magnitude displayed is 2.5.

Températures des eaux côtières

Lieu Température

Stations

Stations météo à proximité

Emplacement de la station Température Refroidissement éolien Point de rosée Humidité Vent Precip. Alt. Mise à jour Type
                   
Freeze Warning
Statement as of 03:32 EDT le 25 avril 2015

... Freeze warning remains in effect until 9 am EDT this morning...

* locations... interior southern Connecticut... the lower Hudson
Valley... and interior portions of northeastern New Jersey.

* Hazards... sub-freezing temperatures.

* Temperatures... mid 20s to around 30.

* Timing... this morning.

* Impacts... the sub-freezing temperatures will kill crops and
other sensitive vegetation.

Precautionary/preparedness actions...

A freeze warning means below freezing temperatures are imminent
or highly likely. These conditions will kill crops and other
sensitive vegetation.



Jmc